sensor_id;sensor_type;location;lat;lon;timestamp;P1;durP1;ratioP1;P2;durP2;ratioP2
527;SDS011;250;47.712;7.508;2022-10-31T00:00:23;12.97;;;8.50;;
527;SDS011;250;47.712;7.508;2022-10-31T00:02:50;15.33;;;7.70;;
527;SDS011;250;47.712;7.508;2022-10-31T00:05:17;12.77;;;7.60;;
527;SDS011;250;47.712;7.508;2022-10-31T00:07:44;11.90;;;8.60;;
527;SDS011;250;47.712;7.508;2022-10-31T00:10:11;11.23;;;7.67;;
527;SDS011;250;47.712;7.508;2022-10-31T00:12:39;14.07;;;8.37;;
527;SDS011;250;47.712;7.508;2022-10-31T00:15:07;10.10;;;7.73;;
527;SDS011;250;47.712;7.508;2022-10-31T00:17:35;9.73;;;7.63;;
527;SDS011;250;47.712;7.508;2022-10-31T00:20:02;11.00;;;8.00;;
527;SDS011;250;47.712;7.508;2022-10-31T00:22:30;12.00;;;7.20;;
527;SDS011;250;47.712;7.508;2022-10-31T00:24:56;10.07;;;7.73;;
527;SDS011;250;47.712;7.508;2022-10-31T00:27:23;9.67;;;6.97;;
527;SDS011;250;47.712;7.508;2022-10-31T00:29:52;8.20;;;6.43;;
527;SDS011;250;47.712;7.508;2022-10-31T00:32:19;13.00;;;8.07;;
527;SDS011;250;47.712;7.508;2022-10-31T00:34:46;12.87;;;7.80;;
527;SDS011;250;47.712;7.508;2022-10-31T00:37:13;14.97;;;8.63;;
527;SDS011;250;47.712;7.508;2022-10-31T00:39:40;8.20;;;6.77;;
527;SDS011;250;47.712;7.508;2022-10-31T00:42:07;11.00;;;7.50;;
527;SDS011;250;47.712;7.508;2022-10-31T00:44:34;9.43;;;7.00;;
527;SDS011;250;47.712;7.508;2022-10-31T00:47:03;9.13;;;6.77;;
527;SDS011;250;47.712;7.508;2022-10-31T00:49:30;11.20;;;6.57;;
527;SDS011;250;47.712;7.508;2022-10-31T00:51:57;11.87;;;7.60;;
527;SDS011;250;47.712;7.508;2022-10-31T00:54:24;10.23;;;7.77;;
527;SDS011;250;47.712;7.508;2022-10-31T00:56:50;10.90;;;7.17;;
527;SDS011;250;47.712;7.508;2022-10-31T00:59:17;19.27;;;8.03;;
527;SDS011;250;47.712;7.508;2022-10-31T01:01:44;14.17;;;8.00;;
527;SDS011;250;47.712;7.508;2022-10-31T01:04:13;12.13;;;7.50;;
527;SDS011;250;47.712;7.508;2022-10-31T01:06:40;13.07;;;6.50;;
527;SDS011;250;47.712;7.508;2022-10-31T01:09:07;12.17;;;7.43;;
527;SDS011;250;47.712;7.508;2022-10-31T01:11:34;15.27;;;7.27;;
527;SDS011;250;47.712;7.508;2022-10-31T01:14:02;9.27;;;7.37;;
527;SDS011;250;47.712;7.508;2022-10-31T01:16:29;14.47;;;7.90;;
527;SDS011;250;47.712;7.508;2022-10-31T01:18:56;10.87;;;7.77;;
527;SDS011;250;47.712;7.508;2022-10-31T01:21:25;8.27;;;7.03;;
527;SDS011;250;47.712;7.508;2022-10-31T01:23:53;16.00;;;7.47;;
527;SDS011;250;47.712;7.508;2022-10-31T01:26:22;11.40;;;7.40;;
527;SDS011;250;47.712;7.508;2022-10-31T01:28:51;8.50;;;7.50;;
527;SDS011;250;47.712;7.508;2022-10-31T01:31:20;10.90;;;6.97;;
527;SDS011;250;47.712;7.508;2022-10-31T01:33:48;10.57;;;7.47;;
527;SDS011;250;47.712;7.508;2022-10-31T01:36:17;11.30;;;8.10;;
527;SDS011;250;47.712;7.508;2022-10-31T01:38:47;9.43;;;7.33;;
527;SDS011;250;47.712;7.508;2022-10-31T01:41:15;8.43;;;7.37;;
527;SDS011;250;47.712;7.508;2022-10-31T01:43:45;13.83;;;7.63;;
527;SDS011;250;47.712;7.508;2022-10-31T01:46:14;8.73;;;6.77;;
527;SDS011;250;47.712;7.508;2022-10-31T01:48:43;11.10;;;7.20;;
527;SDS011;250;47.712;7.508;2022-10-31T01:51:11;11.57;;;7.17;;
527;SDS011;250;47.712;7.508;2022-10-31T01:53:40;10.73;;;7.07;;
527;SDS011;250;47.712;7.508;2022-10-31T01:56:11;8.70;;;6.10;;
527;SDS011;250;47.712;7.508;2022-10-31T01:58:41;11.40;;;6.40;;
527;SDS011;250;47.712;7.508;2022-10-31T02:01:10;14.97;;;7.37;;
527;SDS011;250;47.712;7.508;2022-10-31T02:03:40;10.13;;;7.00;;
527;SDS011;250;47.712;7.508;2022-10-31T02:06:08;9.47;;;7.13;;
527;SDS011;250;47.712;7.508;2022-10-31T02:08:47;12.30;;;7.33;;
527;SDS011;250;47.712;7.508;2022-10-31T02:11:16;13.03;;;6.90;;
527;SDS011;250;47.712;7.508;2022-10-31T02:13:43;11.57;;;8.43;;
527;SDS011;250;47.712;7.508;2022-10-31T02:16:10;7.87;;;7.07;;
527;SDS011;250;47.712;7.508;2022-10-31T02:18:37;12.17;;;6.73;;
527;SDS011;250;47.712;7.508;2022-10-31T02:21:07;9.03;;;6.40;;
527;SDS011;250;47.712;7.508;2022-10-31T02:26:51;9.20;;;6.90;;
527;SDS011;250;47.712;7.508;2022-10-31T02:29:45;10.90;;;6.70;;
527;SDS011;250;47.712;7.508;2022-10-31T02:32:45;9.37;;;6.50;;
527;SDS011;250;47.712;7.508;2022-10-31T02:35:22;15.10;;;7.10;;
527;SDS011;250;47.712;7.508;2022-10-31T02:38:00;9.37;;;6.53;;
527;SDS011;250;47.712;7.508;2022-10-31T02:40:34;12.23;;;6.53;;
527;SDS011;250;47.712;7.508;2022-10-31T02:43:05;11.10;;;7.90;;
527;SDS011;250;47.712;7.508;2022-10-31T02:45:41;11.27;;;8.00;;
527;SDS011;250;47.712;7.508;2022-10-31T02:48:16;9.47;;;6.23;;
527;SDS011;250;47.712;7.508;2022-10-31T02:50:47;10.77;;;6.90;;
527;SDS011;250;47.712;7.508;2022-10-31T02:53:18;11.90;;;7.17;;
527;SDS011;250;47.712;7.508;2022-10-31T02:55:47;10.63;;;6.60;;
527;SDS011;250;47.712;7.508;2022-10-31T02:58:24;13.13;;;6.67;;
527;SDS011;250;47.712;7.508;2022-10-31T03:01:00;11.97;;;6.87;;
527;SDS011;250;47.712;7.508;2022-10-31T03:03:42;12.30;;;7.10;;
527;SDS011;250;47.712;7.508;2022-10-31T03:06:17;17.20;;;6.40;;
527;SDS011;250;47.712;7.508;2022-10-31T03:08:54;8.80;;;6.83;;
527;SDS011;250;47.712;7.508;2022-10-31T03:11:28;8.40;;;6.03;;
527;SDS011;250;47.712;7.508;2022-10-31T03:13:59;14.00;;;7.00;;
527;SDS011;250;47.712;7.508;2022-10-31T03:16:34;8.43;;;6.10;;
527;SDS011;250;47.712;7.508;2022-10-31T03:19:08;9.23;;;6.20;;
527;SDS011;250;47.712;7.508;2022-10-31T03:21:38;10.73;;;5.90;;
527;SDS011;250;47.712;7.508;2022-10-31T03:24:09;11.60;;;6.60;;
527;SDS011;250;47.712;7.508;2022-10-31T03:26:38;10.10;;;6.57;;
527;SDS011;250;47.712;7.508;2022-10-31T03:29:09;9.30;;;6.13;;
527;SDS011;250;47.712;7.508;2022-10-31T03:31:40;10.17;;;7.27;;
527;SDS011;250;47.712;7.508;2022-10-31T03:34:13;8.50;;;6.53;;
527;SDS011;250;47.712;7.508;2022-10-31T03:36:41;9.67;;;7.40;;
527;SDS011;250;47.712;7.508;2022-10-31T03:39:12;16.33;;;6.63;;
527;SDS011;250;47.712;7.508;2022-10-31T03:41:42;9.80;;;6.53;;
527;SDS011;250;47.712;7.508;2022-10-31T03:44:10;11.30;;;7.03;;
527;SDS011;250;47.712;7.508;2022-10-31T03:46:41;8.83;;;6.70;;
527;SDS011;250;47.712;7.508;2022-10-31T03:49:08;10.80;;;7.20;;
527;SDS011;250;47.712;7.508;2022-10-31T03:51:38;11.50;;;6.53;;
527;SDS011;250;47.712;7.508;2022-10-31T03:54:11;10.43;;;6.53;;
527;SDS011;250;47.712;7.508;2022-10-31T03:56:45;8.23;;;6.97;;
527;SDS011;250;47.712;7.508;2022-10-31T03:59:19;10.20;;;6.40;;
527;SDS011;250;47.712;7.508;2022-10-31T04:01:51;12.00;;;7.00;;
527;SDS011;250;47.712;7.508;2022-10-31T04:04:22;10.73;;;6.43;;
527;SDS011;250;47.712;7.508;2022-10-31T04:06:52;9.80;;;6.50;;
527;SDS011;250;47.712;7.508;2022-10-31T04:09:22;11.50;;;6.40;;
527;SDS011;250;47.712;7.508;2022-10-31T04:11:51;7.83;;;6.70;;
527;SDS011;250;47.712;7.508;2022-10-31T04:14:21;9.77;;;6.20;;
527;SDS011;250;47.712;7.508;2022-10-31T04:16:51;11.80;;;6.00;;
527;SDS011;250;47.712;7.508;2022-10-31T04:19:18;7.03;;;5.73;;
527;SDS011;250;47.712;7.508;2022-10-31T04:21:45;10.13;;;6.40;;
527;SDS011;250;47.712;7.508;2022-10-31T04:24:13;8.87;;;6.10;;
527;SDS011;250;47.712;7.508;2022-10-31T04:26:40;10.63;;;5.87;;
527;SDS011;250;47.712;7.508;2022-10-31T04:29:07;7.43;;;5.73;;
527;SDS011;250;47.712;7.508;2022-10-31T04:31:34;9.37;;;5.90;;
527;SDS011;250;47.712;7.508;2022-10-31T04:34:01;10.87;;;6.93;;
527;SDS011;250;47.712;7.508;2022-10-31T04:36:28;7.77;;;5.60;;
527;SDS011;250;47.712;7.508;2022-10-31T04:38:55;10.50;;;6.20;;
527;SDS011;250;47.712;7.508;2022-10-31T04:41:24;9.63;;;6.60;;
527;SDS011;250;47.712;7.508;2022-10-31T04:43:51;7.33;;;6.40;;
527;SDS011;250;47.712;7.508;2022-10-31T04:46:18;10.40;;;6.37;;
527;SDS011;250;47.712;7.508;2022-10-31T04:48:45;11.10;;;6.90;;
527;SDS011;250;47.712;7.508;2022-10-31T04:51:12;10.80;;;6.83;;
527;SDS011;250;47.712;7.508;2022-10-31T04:53:39;8.17;;;5.80;;
527;SDS011;250;47.712;7.508;2022-10-31T04:56:06;13.30;;;6.20;;
527;SDS011;250;47.712;7.508;2022-10-31T04:58:34;9.90;;;6.87;;
527;SDS011;250;47.712;7.508;2022-10-31T05:01:01;11.97;;;6.30;;
527;SDS011;250;47.712;7.508;2022-10-31T05:03:28;12.23;;;6.93;;
527;SDS011;250;47.712;7.508;2022-10-31T05:05:55;8.50;;;6.17;;
527;SDS011;250;47.712;7.508;2022-10-31T05:08:22;8.87;;;6.60;;
527;SDS011;250;47.712;7.508;2022-10-31T05:10:49;11.70;;;6.70;;
527;SDS011;250;47.712;7.508;2022-10-31T05:13:17;8.73;;;6.23;;
527;SDS011;250;47.712;7.508;2022-10-31T05:15:45;7.70;;;6.40;;
527;SDS011;250;47.712;7.508;2022-10-31T05:18:12;9.47;;;6.23;;
527;SDS011;250;47.712;7.508;2022-10-31T05:20:39;8.77;;;5.90;;
527;SDS011;250;47.712;7.508;2022-10-31T05:23:06;7.13;;;6.43;;
527;SDS011;250;47.712;7.508;2022-10-31T05:25:33;8.10;;;5.83;;
527;SDS011;250;47.712;7.508;2022-10-31T05:28:00;9.77;;;6.00;;
527;SDS011;250;47.712;7.508;2022-10-31T05:30:28;8.37;;;7.47;;
527;SDS011;250;47.712;7.508;2022-10-31T05:32:57;9.03;;;6.33;;
527;SDS011;250;47.712;7.508;2022-10-31T05:35:26;12.80;;;7.13;;
527;SDS011;250;47.712;7.508;2022-10-31T05:37:54;9.00;;;6.43;;
527;SDS011;250;47.712;7.508;2022-10-31T05:40:23;12.97;;;7.50;;
527;SDS011;250;47.712;7.508;2022-10-31T05:42:51;7.70;;;6.20;;
527;SDS011;250;47.712;7.508;2022-10-31T05:45:19;8.83;;;6.37;;
527;SDS011;250;47.712;7.508;2022-10-31T05:47:50;6.93;;;6.10;;
527;SDS011;250;47.712;7.508;2022-10-31T05:50:19;7.90;;;7.10;;
527;SDS011;250;47.712;7.508;2022-10-31T05:52:47;7.90;;;6.63;;
527;SDS011;250;47.712;7.508;2022-10-31T05:55:20;9.00;;;6.50;;
527;SDS011;250;47.712;7.508;2022-10-31T05:57:47;10.80;;;7.60;;
527;SDS011;250;47.712;7.508;2022-10-31T06:00:14;13.77;;;7.40;;
527;SDS011;250;47.712;7.508;2022-10-31T06:02:41;9.83;;;6.90;;
527;SDS011;250;47.712;7.508;2022-10-31T06:05:08;8.27;;;6.87;;
527;SDS011;250;47.712;7.508;2022-10-31T06:07:36;9.40;;;7.77;;
527;SDS011;250;47.712;7.508;2022-10-31T06:10:04;10.50;;;7.03;;
527;SDS011;250;47.712;7.508;2022-10-31T06:12:33;11.50;;;7.40;;
527;SDS011;250;47.712;7.508;2022-10-31T06:15:03;8.63;;;7.00;;
527;SDS011;250;47.712;7.508;2022-10-31T06:17:31;7.70;;;6.80;;
527;SDS011;250;47.712;7.508;2022-10-31T06:19:58;8.60;;;6.93;;
527;SDS011;250;47.712;7.508;2022-10-31T06:22:25;9.33;;;7.00;;
527;SDS011;250;47.712;7.508;2022-10-31T06:24:54;7.90;;;6.70;;
527;SDS011;250;47.712;7.508;2022-10-31T06:27:20;11.43;;;6.90;;
527;SDS011;250;47.712;7.508;2022-10-31T06:29:47;8.30;;;6.50;;
527;SDS011;250;47.712;7.508;2022-10-31T06:32:14;9.03;;;6.60;;
527;SDS011;250;47.712;7.508;2022-10-31T06:34:42;9.10;;;6.77;;
527;SDS011;250;47.712;7.508;2022-10-31T06:37:13;12.97;;;6.93;;
527;SDS011;250;47.712;7.508;2022-10-31T06:39:40;9.20;;;6.80;;
527;SDS011;250;47.712;7.508;2022-10-31T06:42:09;10.27;;;7.20;;
527;SDS011;250;47.712;7.508;2022-10-31T06:44:36;10.93;;;6.80;;
527;SDS011;250;47.712;7.508;2022-10-31T06:47:03;7.93;;;6.00;;
527;SDS011;250;47.712;7.508;2022-10-31T06:49:31;9.50;;;7.37;;
527;SDS011;250;47.712;7.508;2022-10-31T06:51:58;8.80;;;7.50;;
527;SDS011;250;47.712;7.508;2022-10-31T06:54:25;15.60;;;7.57;;
527;SDS011;250;47.712;7.508;2022-10-31T06:56:52;10.40;;;7.40;;
527;SDS011;250;47.712;7.508;2022-10-31T06:59:20;9.30;;;8.30;;
527;SDS011;250;47.712;7.508;2022-10-31T07:01:49;8.80;;;7.80;;
527;SDS011;250;47.712;7.508;2022-10-31T07:04:16;8.97;;;7.10;;
527;SDS011;250;47.712;7.508;2022-10-31T07:06:43;11.90;;;7.50;;
527;SDS011;250;47.712;7.508;2022-10-31T07:09:10;11.60;;;8.20;;
527;SDS011;250;47.712;7.508;2022-10-31T07:11:37;11.60;;;8.20;;
527;SDS011;250;47.712;7.508;2022-10-31T07:14:04;9.27;;;7.80;;
527;SDS011;250;47.712;7.508;2022-10-31T07:16:33;12.00;;;9.87;;
527;SDS011;250;47.712;7.508;2022-10-31T07:19:00;8.27;;;7.40;;
527;SDS011;250;47.712;7.508;2022-10-31T07:21:27;10.93;;;8.30;;
527;SDS011;250;47.712;7.508;2022-10-31T07:23:54;9.77;;;8.13;;
527;SDS011;250;47.712;7.508;2022-10-31T07:26:21;10.03;;;8.53;;
527;SDS011;250;47.712;7.508;2022-10-31T07:28:48;10.37;;;8.30;;
527;SDS011;250;47.712;7.508;2022-10-31T07:31:15;12.53;;;8.57;;
527;SDS011;250;47.712;7.508;2022-10-31T07:33:43;10.70;;;7.83;;
527;SDS011;250;47.712;7.508;2022-10-31T07:36:10;8.97;;;7.70;;
527;SDS011;250;47.712;7.508;2022-10-31T07:38:37;9.57;;;7.80;;
527;SDS011;250;47.712;7.508;2022-10-31T07:41:04;9.00;;;8.13;;
527;SDS011;250;47.712;7.508;2022-10-31T07:43:31;10.63;;;7.83;;
527;SDS011;250;47.712;7.508;2022-10-31T07:45:58;8.33;;;7.53;;
527;SDS011;250;47.712;7.508;2022-10-31T07:48:25;11.57;;;8.07;;
527;SDS011;250;47.712;7.508;2022-10-31T07:50:54;9.30;;;7.70;;
527;SDS011;250;47.712;7.508;2022-10-31T07:53:21;12.70;;;7.97;;
527;SDS011;250;47.712;7.508;2022-10-31T07:55:48;9.90;;;7.13;;
527;SDS011;250;47.712;7.508;2022-10-31T07:58:15;10.87;;;7.50;;
527;SDS011;250;47.712;7.508;2022-10-31T08:00:43;8.53;;;7.63;;
527;SDS011;250;47.712;7.508;2022-10-31T08:03:12;21.13;;;8.43;;
527;SDS011;250;47.712;7.508;2022-10-31T08:05:40;7.90;;;7.10;;
527;SDS011;250;47.712;7.508;2022-10-31T08:08:11;9.50;;;8.13;;
527;SDS011;250;47.712;7.508;2022-10-31T08:10:39;11.57;;;6.60;;
527;SDS011;250;47.712;7.508;2022-10-31T08:13:07;13.63;;;7.33;;
527;SDS011;250;47.712;7.508;2022-10-31T08:15:35;8.60;;;7.20;;
527;SDS011;250;47.712;7.508;2022-10-31T08:18:04;8.40;;;7.27;;
527;SDS011;250;47.712;7.508;2022-10-31T08:20:32;10.90;;;8.13;;
527;SDS011;250;47.712;7.508;2022-10-31T08:22:59;11.23;;;7.77;;
527;SDS011;250;47.712;7.508;2022-10-31T08:25:30;8.90;;;6.87;;
527;SDS011;250;47.712;7.508;2022-10-31T08:27:58;9.10;;;6.77;;
527;SDS011;250;47.712;7.508;2022-10-31T08:30:26;13.50;;;7.57;;
527;SDS011;250;47.712;7.508;2022-10-31T08:32:58;9.83;;;8.10;;
527;SDS011;250;47.712;7.508;2022-10-31T08:35:29;7.97;;;6.67;;
527;SDS011;250;47.712;7.508;2022-10-31T08:37:57;9.30;;;7.07;;
527;SDS011;250;47.712;7.508;2022-10-31T08:40:25;8.60;;;6.60;;
527;SDS011;250;47.712;7.508;2022-10-31T08:42:58;7.17;;;6.47;;
527;SDS011;250;47.712;7.508;2022-10-31T08:45:26;9.60;;;7.23;;
527;SDS011;250;47.712;7.508;2022-10-31T08:47:56;11.23;;;7.23;;
527;SDS011;250;47.712;7.508;2022-10-31T08:50:24;7.77;;;5.10;;
527;SDS011;250;47.712;7.508;2022-10-31T08:52:51;10.43;;;5.57;;
527;SDS011;250;47.712;7.508;2022-10-31T08:55:18;10.10;;;6.50;;
527;SDS011;250;47.712;7.508;2022-10-31T08:57:45;11.40;;;7.00;;
527;SDS011;250;47.712;7.508;2022-10-31T09:00:14;10.57;;;6.20;;
527;SDS011;250;47.712;7.508;2022-10-31T09:02:41;13.80;;;6.40;;
527;SDS011;250;47.712;7.508;2022-10-31T09:05:08;9.13;;;6.37;;
527;SDS011;250;47.712;7.508;2022-10-31T09:07:35;8.87;;;6.00;;
527;SDS011;250;47.712;7.508;2022-10-31T09:10:02;13.23;;;8.10;;
527;SDS011;250;47.712;7.508;2022-10-31T09:12:30;11.37;;;6.30;;
527;SDS011;250;47.712;7.508;2022-10-31T09:14:56;12.30;;;6.00;;
527;SDS011;250;47.712;7.508;2022-10-31T09:17:27;6.93;;;5.00;;
527;SDS011;250;47.712;7.508;2022-10-31T09:19:54;10.53;;;5.53;;
527;SDS011;250;47.712;7.508;2022-10-31T09:22:22;7.20;;;5.90;;
527;SDS011;250;47.712;7.508;2022-10-31T09:24:49;7.70;;;5.70;;
527;SDS011;250;47.712;7.508;2022-10-31T09:27:16;7.30;;;5.10;;
527;SDS011;250;47.712;7.508;2022-10-31T09:29:43;8.00;;;5.50;;
527;SDS011;250;47.712;7.508;2022-10-31T09:32:10;7.10;;;4.83;;
527;SDS011;250;47.712;7.508;2022-10-31T09:34:38;7.07;;;5.50;;
527;SDS011;250;47.712;7.508;2022-10-31T09:37:05;8.13;;;6.30;;
527;SDS011;250;47.712;7.508;2022-10-31T09:39:32;6.70;;;5.57;;
527;SDS011;250;47.712;7.508;2022-10-31T09:42:14;10.63;;;6.90;;
527;SDS011;250;47.712;7.508;2022-10-31T09:45:06;10.57;;;7.50;;
527;SDS011;250;47.712;7.508;2022-10-31T09:47:43;6.80;;;5.87;;
527;SDS011;250;47.712;7.508;2022-10-31T09:50:24;8.33;;;5.00;;
527;SDS011;250;47.712;7.508;2022-10-31T09:53:06;6.13;;;4.93;;
527;SDS011;250;47.712;7.508;2022-10-31T09:55:39;8.20;;;6.07;;
527;SDS011;250;47.712;7.508;2022-10-31T09:58:09;9.63;;;6.10;;
527;SDS011;250;47.712;7.508;2022-10-31T10:00:41;9.47;;;5.90;;
527;SDS011;250;47.712;7.508;2022-10-31T10:03:11;8.50;;;5.73;;
527;SDS011;250;47.712;7.508;2022-10-31T10:05:51;8.23;;;5.00;;
527;SDS011;250;47.712;7.508;2022-10-31T10:08:23;7.90;;;5.90;;
527;SDS011;250;47.712;7.508;2022-10-31T10:10:54;6.03;;;5.33;;
527;SDS011;250;47.712;7.508;2022-10-31T10:13:41;10.97;;;5.97;;
527;SDS011;250;47.712;7.508;2022-10-31T10:16:21;6.67;;;5.37;;
527;SDS011;250;47.712;7.508;2022-10-31T10:19:01;8.83;;;6.00;;
527;SDS011;250;47.712;7.508;2022-10-31T10:21:42;12.17;;;5.90;;
527;SDS011;250;47.712;7.508;2022-10-31T10:24:19;6.40;;;5.30;;
527;SDS011;250;47.712;7.508;2022-10-31T10:26:57;6.93;;;5.43;;
527;SDS011;250;47.712;7.508;2022-10-31T10:29:33;5.70;;;4.73;;
527;SDS011;250;47.712;7.508;2022-10-31T10:32:04;8.40;;;4.80;;
527;SDS011;250;47.712;7.508;2022-10-31T10:34:36;12.27;;;4.87;;
527;SDS011;250;47.712;7.508;2022-10-31T10:37:11;4.90;;;4.20;;
527;SDS011;250;47.712;7.508;2022-10-31T10:39:47;7.87;;;4.83;;
527;SDS011;250;47.712;7.508;2022-10-31T10:42:19;9.33;;;5.43;;
527;SDS011;250;47.712;7.508;2022-10-31T10:45:06;7.40;;;4.70;;
527;SDS011;250;47.712;7.508;2022-10-31T10:48:00;8.70;;;5.40;;
527;SDS011;250;47.712;7.508;2022-10-31T10:50:41;6.67;;;5.97;;
527;SDS011;250;47.712;7.508;2022-10-31T10:53:20;6.43;;;4.87;;
527;SDS011;250;47.712;7.508;2022-10-31T10:56:02;10.40;;;4.77;;
527;SDS011;250;47.712;7.508;2022-10-31T10:58:38;6.93;;;5.90;;
527;SDS011;250;47.712;7.508;2022-10-31T11:01:09;7.67;;;5.30;;
527;SDS011;250;47.712;7.508;2022-10-31T11:03:38;12.00;;;5.10;;
527;SDS011;250;47.712;7.508;2022-10-31T11:06:15;7.07;;;4.67;;
527;SDS011;250;47.712;7.508;2022-10-31T11:08:48;9.10;;;5.40;;
527;SDS011;250;47.712;7.508;2022-10-31T11:11:19;9.53;;;5.00;;
527;SDS011;250;47.712;7.508;2022-10-31T11:13:53;8.40;;;4.93;;
527;SDS011;250;47.712;7.508;2022-10-31T11:16:29;10.13;;;4.37;;
527;SDS011;250;47.712;7.508;2022-10-31T11:19:06;5.90;;;4.00;;
527;SDS011;250;47.712;7.508;2022-10-31T11:21:42;7.07;;;3.90;;
527;SDS011;250;47.712;7.508;2022-10-31T11:24:16;8.40;;;3.93;;
527;SDS011;250;47.712;7.508;2022-10-31T11:26:45;11.87;;;4.33;;
527;SDS011;250;47.712;7.508;2022-10-31T11:29:16;6.70;;;4.10;;
527;SDS011;250;47.712;7.508;2022-10-31T11:31:46;4.37;;;2.97;;
527;SDS011;250;47.712;7.508;2022-10-31T11:34:19;6.90;;;3.90;;
527;SDS011;250;47.712;7.508;2022-10-31T11:37:02;10.70;;;3.97;;
527;SDS011;250;47.712;7.508;2022-10-31T11:39:38;6.70;;;4.10;;
527;SDS011;250;47.712;7.508;2022-10-31T11:42:08;4.47;;;3.83;;
527;SDS011;250;47.712;7.508;2022-10-31T11:44:35;5.57;;;3.67;;
527;SDS011;250;47.712;7.508;2022-10-31T11:47:03;5.87;;;3.60;;
527;SDS011;250;47.712;7.508;2022-10-31T11:49:32;12.03;;;3.80;;
527;SDS011;250;47.712;7.508;2022-10-31T11:52:04;7.70;;;4.27;;
527;SDS011;250;47.712;7.508;2022-10-31T11:54:33;4.53;;;4.00;;
527;SDS011;250;47.712;7.508;2022-10-31T11:57:19;8.70;;;3.90;;
527;SDS011;250;47.712;7.508;2022-10-31T11:59:51;11.07;;;3.70;;
527;SDS011;250;47.712;7.508;2022-10-31T12:02:19;5.63;;;3.83;;
527;SDS011;250;47.712;7.508;2022-10-31T12:04:48;4.60;;;3.53;;
527;SDS011;250;47.712;7.508;2022-10-31T12:07:18;7.80;;;3.90;;
527;SDS011;250;47.712;7.508;2022-10-31T12:09:46;8.77;;;3.97;;
527;SDS011;250;47.712;7.508;2022-10-31T12:12:29;6.53;;;4.13;;
527;SDS011;250;47.712;7.508;2022-10-31T12:18:03;5.33;;;4.03;;
527;SDS011;250;47.712;7.508;2022-10-31T12:20:52;6.53;;;4.80;;
527;SDS011;250;47.712;7.508;2022-10-31T12:23:31;7.03;;;4.50;;
527;SDS011;250;47.712;7.508;2022-10-31T12:26:11;7.63;;;4.13;;
527;SDS011;250;47.712;7.508;2022-10-31T12:28:48;9.03;;;3.70;;
527;SDS011;250;47.712;7.508;2022-10-31T12:31:31;7.53;;;3.97;;
527;SDS011;250;47.712;7.508;2022-10-31T12:34:16;9.20;;;3.50;;
527;SDS011;250;47.712;7.508;2022-10-31T12:37:03;7.57;;;3.63;;
527;SDS011;250;47.712;7.508;2022-10-31T12:39:39;5.50;;;3.50;;
527;SDS011;250;47.712;7.508;2022-10-31T12:42:14;7.70;;;3.80;;
527;SDS011;250;47.712;7.508;2022-10-31T12:47:57;4.73;;;2.93;;
527;SDS011;250;47.712;7.508;2022-10-31T12:50:38;5.97;;;3.20;;
527;SDS011;250;47.712;7.508;2022-10-31T12:53:21;8.80;;;3.70;;
527;SDS011;250;47.712;7.508;2022-10-31T12:56:01;5.77;;;3.40;;
527;SDS011;250;47.712;7.508;2022-10-31T12:58:40;7.80;;;4.47;;
527;SDS011;250;47.712;7.508;2022-10-31T13:01:14;3.83;;;2.67;;
527;SDS011;250;47.712;7.508;2022-10-31T13:03:48;6.00;;;3.37;;
527;SDS011;250;47.712;7.508;2022-10-31T13:06:20;9.03;;;3.57;;
527;SDS011;250;47.712;7.508;2022-10-31T13:08:51;8.80;;;4.50;;
527;SDS011;250;47.712;7.508;2022-10-31T13:11:21;7.87;;;4.00;;
527;SDS011;250;47.712;7.508;2022-10-31T13:13:55;5.97;;;3.90;;
527;SDS011;250;47.712;7.508;2022-10-31T13:16:28;6.20;;;3.67;;
527;SDS011;250;47.712;7.508;2022-10-31T13:19:01;4.67;;;3.60;;
527;SDS011;250;47.712;7.508;2022-10-31T13:21:36;6.17;;;4.70;;
527;SDS011;250;47.712;7.508;2022-10-31T13:24:08;9.03;;;3.60;;
527;SDS011;250;47.712;7.508;2022-10-31T13:26:41;6.60;;;4.30;;
527;SDS011;250;47.712;7.508;2022-10-31T13:29:14;8.10;;;5.27;;
527;SDS011;250;47.712;7.508;2022-10-31T13:31:45;7.50;;;5.40;;
527;SDS011;250;47.712;7.508;2022-10-31T13:34:16;7.73;;;6.23;;
527;SDS011;250;47.712;7.508;2022-10-31T13:36:52;8.70;;;6.07;;
527;SDS011;250;47.712;7.508;2022-10-31T13:39:28;11.07;;;6.90;;
527;SDS011;250;47.712;7.508;2022-10-31T13:42:08;8.93;;;6.20;;
527;SDS011;250;47.712;7.508;2022-10-31T13:44:42;11.70;;;5.63;;
527;SDS011;250;47.712;7.508;2022-10-31T13:47:22;9.10;;;5.80;;
527;SDS011;250;47.712;7.508;2022-10-31T13:49:51;11.53;;;5.37;;
527;SDS011;250;47.712;7.508;2022-10-31T13:52:30;9.20;;;5.13;;
527;SDS011;250;47.712;7.508;2022-10-31T13:54:57;13.73;;;5.30;;
527;SDS011;250;47.712;7.508;2022-10-31T13:57:27;7.37;;;4.50;;
527;SDS011;250;47.712;7.508;2022-10-31T14:00:03;7.40;;;4.57;;
527;SDS011;250;47.712;7.508;2022-10-31T14:02:33;9.70;;;5.03;;
527;SDS011;250;47.712;7.508;2022-10-31T14:05:03;11.77;;;4.83;;
527;SDS011;250;47.712;7.508;2022-10-31T14:07:32;8.00;;;4.80;;
527;SDS011;250;47.712;7.508;2022-10-31T14:10:01;7.93;;;4.60;;
527;SDS011;250;47.712;7.508;2022-10-31T14:12:31;8.47;;;5.77;;
527;SDS011;250;47.712;7.508;2022-10-31T14:15:12;6.73;;;5.17;;
527;SDS011;250;47.712;7.508;2022-10-31T14:17:45;8.27;;;5.20;;
527;SDS011;250;47.712;7.508;2022-10-31T14:23:10;9.93;;;5.10;;
527;SDS011;250;47.712;7.508;2022-10-31T14:25:40;10.10;;;4.40;;
527;SDS011;250;47.712;7.508;2022-10-31T14:28:18;8.73;;;4.40;;
527;SDS011;250;47.712;7.508;2022-10-31T14:30:55;7.00;;;4.83;;
527;SDS011;250;47.712;7.508;2022-10-31T14:33:24;6.93;;;4.70;;
527;SDS011;250;47.712;7.508;2022-10-31T14:35:54;9.80;;;4.80;;
527;SDS011;250;47.712;7.508;2022-10-31T14:38:29;11.03;;;4.10;;
527;SDS011;250;47.712;7.508;2022-10-31T14:41:16;6.67;;;4.10;;
527;SDS011;250;47.712;7.508;2022-10-31T14:44:01;6.60;;;4.03;;
527;SDS011;250;47.712;7.508;2022-10-31T14:46:44;9.73;;;4.00;;
527;SDS011;250;47.712;7.508;2022-10-31T14:52:07;8.20;;;6.27;;
527;SDS011;250;47.712;7.508;2022-10-31T14:54:38;10.27;;;7.23;;
527;SDS011;250;47.712;7.508;2022-10-31T14:57:08;16.90;;;9.10;;
527;SDS011;250;47.712;7.508;2022-10-31T14:59:43;22.50;;;11.57;;
527;SDS011;250;47.712;7.508;2022-10-31T15:02:16;20.77;;;11.50;;
527;SDS011;250;47.712;7.508;2022-10-31T15:04:46;12.00;;;7.30;;
527;SDS011;250;47.712;7.508;2022-10-31T15:07:17;19.37;;;5.87;;
527;SDS011;250;47.712;7.508;2022-10-31T15:09:54;11.70;;;5.80;;
527;SDS011;250;47.712;7.508;2022-10-31T15:12:24;9.83;;;5.23;;
527;SDS011;250;47.712;7.508;2022-10-31T15:14:52;11.83;;;5.40;;
527;SDS011;250;47.712;7.508;2022-10-31T15:17:20;6.97;;;5.30;;
527;SDS011;250;47.712;7.508;2022-10-31T15:19:48;11.03;;;4.70;;
527;SDS011;250;47.712;7.508;2022-10-31T15:22:16;6.83;;;5.50;;
527;SDS011;250;47.712;7.508;2022-10-31T15:24:46;10.20;;;5.23;;
527;SDS011;250;47.712;7.508;2022-10-31T15:27:21;13.43;;;5.70;;
527;SDS011;250;47.712;7.508;2022-10-31T15:29:49;11.23;;;5.03;;
527;SDS011;250;47.712;7.508;2022-10-31T15:32:18;19.47;;;6.20;;
527;SDS011;250;47.712;7.508;2022-10-31T15:34:48;8.63;;;5.00;;
527;SDS011;250;47.712;7.508;2022-10-31T15:37:17;12.60;;;4.87;;
527;SDS011;250;47.712;7.508;2022-10-31T15:39:45;6.97;;;4.77;;
527;SDS011;250;47.712;7.508;2022-10-31T15:42:15;9.33;;;4.53;;
527;SDS011;250;47.712;7.508;2022-10-31T15:44:45;9.20;;;4.40;;
527;SDS011;250;47.712;7.508;2022-10-31T15:47:16;7.63;;;4.80;;
527;SDS011;250;47.712;7.508;2022-10-31T15:49:48;8.60;;;4.60;;
527;SDS011;250;47.712;7.508;2022-10-31T15:52:19;7.43;;;4.70;;
527;SDS011;250;47.712;7.508;2022-10-31T15:54:54;7.90;;;5.93;;
527;SDS011;250;47.712;7.508;2022-10-31T15:57:24;10.13;;;5.27;;
527;SDS011;250;47.712;7.508;2022-10-31T15:59:52;7.53;;;5.00;;
527;SDS011;250;47.712;7.508;2022-10-31T16:02:21;10.67;;;5.60;;
527;SDS011;250;47.712;7.508;2022-10-31T16:04:53;7.93;;;4.40;;
527;SDS011;250;47.712;7.508;2022-10-31T16:07:22;8.60;;;4.27;;
527;SDS011;250;47.712;7.508;2022-10-31T16:09:54;5.57;;;4.20;;
527;SDS011;250;47.712;7.508;2022-10-31T16:12:22;8.60;;;4.50;;
527;SDS011;250;47.712;7.508;2022-10-31T16:14:51;8.73;;;4.80;;
527;SDS011;250;47.712;7.508;2022-10-31T16:17:21;11.33;;;4.20;;